Time,TemperatureF,DewpointF,PressureIn,WindDirection,WindDirectionDegrees,WindSpeedMPH,WindSpeedGustMPH,Humidity,HourlyPrecipIn,Conditions,Clouds,dailyrainin,SolarRadiationWatts/m^2,SoftwareType,DateUTC
2013-04-13 00:00:00,37.0,37.0,-100.00,West,270,9.0,-999.0,104,0.03,,,-99.99,0.000000,,2013-04-13 04:00:00,
2013-04-13 00:42:00,37.0,37.0,-100.00,West,270,9.0,-999.0,104,0.03,,,-99.99,0.000000,,2013-04-13 04:42:00,
2013-04-13 00:53:00,37.0,37.0,-100.00,West,270,9.0,-999.0,104,0.03,,,-99.99,0.000000,,2013-04-13 04:53:00,
2013-04-13 01:00:00,36.0,36.0,-100.00,West,270,12.0,-999.0,104,0.02,,,-99.99,0.000000,,2013-04-13 05:00:00,
2013-04-13 01:43:00,36.0,36.0,-100.00,West,270,12.0,-999.0,104,0.02,,,-99.99,0.000000,,2013-04-13 05:43:00,
2013-04-13 01:53:00,36.0,36.0,-100.00,West,270,12.0,-999.0,104,0.02,,,-99.99,0.000000,,2013-04-13 05:53:00,
2013-04-13 02:00:00,35.0,35.0,-100.00,West,270,13.0,-999.0,103,0.01,,,-99.99,0.000000,,2013-04-13 06:00:00,
2013-04-13 02:49:00,35.0,35.0,-100.00,West,270,13.0,-999.0,103,0.01,,,-99.99,0.000000,,2013-04-13 06:49:00,
2013-04-13 02:56:00,35.0,35.0,-100.00,West,270,13.0,-999.0,103,0.01,,,-99.99,0.000000,,2013-04-13 06:56:00,
2013-04-13 03:00:00,35.0,35.0,-100.00,West,270,10.0,-999.0,102,-99.99,,,-99.99,0.000000,,2013-04-13 07:00:00,
2013-04-13 03:46:00,35.0,35.0,-100.00,West,270,10.0,-999.0,102,-99.99,,,-99.99,0.000000,,2013-04-13 07:46:00,
2013-04-13 03:58:00,35.0,35.0,-100.00,West,270,10.0,-999.0,102,-99.99,,,-99.99,0.000000,,2013-04-13 07:58:00,
2013-04-13 04:00:00,35.0,35.0,-100.00,WSW,247,7.0,-999.0,98,-99.99,,,-99.99,0.000000,,2013-04-13 08:00:00,
2013-04-13 04:47:00,35.0,35.0,-100.00,WSW,247,7.0,-999.0,98,-99.99,,,-99.99,0.000000,,2013-04-13 08:47:00,
2013-04-13 04:55:00,35.0,35.0,-100.00,WSW,247,7.0,-999.0,98,-99.99,,,-99.99,0.000000,,2013-04-13 08:55:00,
2013-04-13 05:00:00,36.0,33.0,-100.00,WSW,247,9.0,-999.0,91,-99.99,,,-99.99,0.000000,,2013-04-13 09:00:00,
2013-04-13 05:53:00,36.0,33.0,-100.00,WSW,247,9.0,-999.0,91,-99.99,,,-99.99,0.000000,,2013-04-13 09:53:00,
2013-04-13 06:00:00,36.0,33.0,-100.00,WSW,247,10.0,-999.0,89,-99.99,,,-99.99,0.000000,,2013-04-13 10:00:00,
2013-04-13 06:51:00,36.0,33.0,-100.00,WSW,247,10.0,-999.0,89,-99.99,,,-99.99,0.000000,,2013-04-13 10:51:00,
2013-04-13 07:00:00,35.0,33.0,-100.00,West,270,11.0,-999.0,90,-99.99,,,-99.99,0.000000,,2013-04-13 11:00:00,
2013-04-13 07:47:00,35.0,33.0,-100.00,West,270,11.0,-999.0,90,-99.99,,,-99.99,0.000000,,2013-04-13 11:47:00,
2013-04-13 07:54:00,35.0,33.0,-100.00,West,270,11.0,-999.0,90,-99.99,,,-99.99,0.000000,,2013-04-13 11:54:00,
2013-04-13 08:00:00,35.0,33.0,-100.00,West,270,13.0,-999.0,91,-99.99,,,-99.99,8.120000,,2013-04-13 12:00:00,
2013-04-13 08:49:00,35.0,33.0,-100.00,West,270,13.0,-999.0,91,-99.99,,,-99.99,8.120000,,2013-04-13 12:49:00,
2013-04-13 08:57:00,35.0,33.0,-100.00,West,270,13.0,-999.0,91,-99.99,,,-99.99,8.120000,,2013-04-13 12:57:00,
2013-04-13 09:00:00,36.0,33.0,-100.00,WSW,247,14.0,-999.0,89,-99.99,,,-99.99,29.000000,,2013-04-13 13:00:00,
2013-04-13 09:49:00,36.0,33.0,-100.00,WSW,247,14.0,-999.0,89,-99.99,,,-99.99,29.000000,,2013-04-13 13:49:00,
2013-04-13 09:58:00,36.0,33.0,-100.00,WSW,247,14.0,-999.0,89,-99.99,,,-99.99,29.000000,,2013-04-13 13:58:00,
2013-04-13 10:00:00,35.0,32.0,-100.00,WSW,247,15.0,-999.0,88,-99.99,,,-99.99,45.240002,,2013-04-13 14:00:00,
2013-04-13 10:48:00,35.0,32.0,-100.00,WSW,247,15.0,-999.0,88,-99.99,,,-99.99,45.240002,,2013-04-13 14:48:00,
2013-04-13 11:00:00,35.0,33.0,-100.00,West,270,14.0,-999.0,93,-99.99,,,-99.99,117.160004,,2013-04-13 15:00:00,
2013-04-13 11:45:00,35.0,33.0,-100.00,West,270,14.0,-999.0,93,-99.99,,,-99.99,117.160004,,2013-04-13 15:45:00,
2013-04-13 11:59:00,35.0,33.0,-100.00,West,270,14.0,-999.0,93,-99.99,,,-99.99,117.160004,,2013-04-13 15:59:00,
2013-04-13 12:00:00,36.0,33.0,-100.00,West,270,16.0,-999.0,90,-99.99,,,-99.99,192.559998,,2013-04-13 16:00:00,
2013-04-13 12:48:00,36.0,33.0,-100.00,West,270,16.0,-999.0,90,-99.99,,,-99.99,192.559998,,2013-04-13 16:48:00,
2013-04-13 13:00:00,37.0,33.0,-100.00,West,270,18.0,-999.0,86,-99.99,,,-99.99,221.559998,,2013-04-13 17:00:00,
2013-04-13 13:45:00,37.0,33.0,-100.00,West,270,18.0,-999.0,86,-99.99,,,-99.99,221.559998,,2013-04-13 17:45:00,
2013-04-13 14:00:00,36.0,31.0,-100.00,West,270,18.0,-999.0,83,-99.99,,,-99.99,107.879997,,2013-04-13 18:00:00,
2013-04-13 14:42:00,36.0,31.0,-100.00,West,270,18.0,-999.0,83,-99.99,,,-99.99,107.879997,,2013-04-13 18:42:00,
2013-04-13 14:53:00,36.0,31.0,-100.00,West,270,18.0,-999.0,83,-99.99,,,-99.99,107.879997,,2013-04-13 18:53:00,
2013-04-13 15:00:00,37.0,31.0,-100.00,West,270,17.0,-999.0,80,-99.99,,,-99.99,450.079987,,2013-04-13 19:00:00,
2013-04-13 15:42:00,37.0,31.0,-100.00,West,270,17.0,-999.0,80,-99.99,,,-99.99,450.079987,,2013-04-13 19:42:00,
2013-04-13 15:53:00,37.0,31.0,-100.00,West,270,17.0,-999.0,80,-99.99,,,-99.99,450.079987,,2013-04-13 19:53:00,
2013-04-13 16:00:00,39.0,31.0,-100.00,West,270,17.0,-999.0,74,-99.99,,,-99.99,421.079987,,2013-04-13 20:00:00,
2013-04-13 16:42:00,39.0,31.0,-100.00,West,270,17.0,-999.0,74,-99.99,,,-99.99,421.079987,,2013-04-13 20:42:00,
2013-04-13 16:53:00,39.0,31.0,-100.00,West,270,17.0,-999.0,74,-99.99,,,-99.99,421.079987,,2013-04-13 20:53:00,
2013-04-13 17:00:00,38.0,29.0,-100.00,West,270,15.0,-999.0,71,-99.99,,,-99.99,207.639999,,2013-04-13 21:00:00,
2013-04-13 17:43:00,38.0,29.0,-100.00,West,270,15.0,-999.0,71,-99.99,,,-99.99,207.639999,,2013-04-13 21:43:00,
2013-04-13 17:53:00,38.0,29.0,-100.00,West,270,15.0,-999.0,71,-99.99,,,-99.99,207.639999,,2013-04-13 21:53:00,
2013-04-13 18:00:00,38.0,29.0,-100.00,West,270,15.0,-999.0,69,-99.99,,,-99.99,162.399994,,2013-04-13 22:00:00,
2013-04-13 18:42:00,38.0,29.0,-100.00,West,270,15.0,-999.0,69,-99.99,,,-99.99,162.399994,,2013-04-13 22:42:00,
2013-04-13 18:53:00,38.0,29.0,-100.00,West,270,15.0,-999.0,69,-99.99,,,-99.99,162.399994,,2013-04-13 22:53:00,
2013-04-13 19:00:00,38.0,29.0,-100.00,West,270,12.0,-999.0,69,-99.99,,,-99.99,90.480003,,2013-04-13 23:00:00,
2013-04-13 19:43:00,38.0,29.0,-100.00,West,270,12.0,-999.0,69,-99.99,,,-99.99,90.480003,,2013-04-13 23:43:00,
2013-04-13 19:53:00,38.0,29.0,-100.00,West,270,12.0,-999.0,69,-99.99,,,-99.99,90.480003,,2013-04-13 23:53:00,
2013-04-13 21:00:00,37.0,29.0,-100.00,West,270,9.0,-999.0,73,-99.99,,,-99.99,2.320000,,2013-04-14 01:00:00,
2013-04-13 21:43:00,37.0,29.0,-100.00,West,270,9.0,-999.0,73,-99.99,,,-99.99,2.320000,,2013-04-14 01:43:00,
2013-04-13 21:53:00,37.0,29.0,-100.00,West,270,9.0,-999.0,73,-99.99,,,-99.99,2.320000,,2013-04-14 01:53:00,
2013-04-13 22:00:00,37.0,30.0,-100.00,West,270,5.0,-999.0,77,-99.99,,,-99.99,0.000000,,2013-04-14 02:00:00,
2013-04-13 22:43:00,37.0,30.0,-100.00,West,270,5.0,-999.0,77,-99.99,,,-99.99,0.000000,,2013-04-14 02:43:00,
2013-04-13 22:53:00,37.0,30.0,-100.00,West,270,5.0,-999.0,77,-99.99,,,-99.99,0.000000,,2013-04-14 02:53:00,
2013-04-13 23:00:00,36.0,31.0,-100.00,WSW,247,3.0,-999.0,82,-99.99,,,-99.99,0.000000,,2013-04-14 03:00:00,
2013-04-13 23:43:00,36.0,31.0,-100.00,WSW,247,3.0,-999.0,82,-99.99,,,-99.99,0.000000,,2013-04-14 03:43:00,
2013-04-13 23:53:00,36.0,31.0,-100.00,WSW,247,3.0,-999.0,82,-99.99,,,-99.99,0.000000,,2013-04-14 03:53:00,